createdAt,value
2019-06-26T00:03:32.873Z,27.30
2019-06-26T00:08:36.543Z,27.30
2019-06-26T00:13:40.401Z,27.30
2019-06-26T00:18:44.161Z,27.30
2019-06-26T00:23:48.073Z,27.30
2019-06-26T00:28:51.786Z,27.30
2019-06-26T00:33:55.925Z,27.30
2019-06-26T00:38:59.903Z,27.30
2019-06-26T00:44:03.592Z,27.30
2019-06-26T00:49:07.318Z,27.30
2019-06-26T00:54:11.008Z,27.30
2019-06-26T00:59:14.707Z,27.30
2019-06-26T01:04:23.016Z,27.30
2019-06-26T01:09:26.673Z,27.30
2019-06-26T01:14:49.729Z,27.30
2019-06-26T01:19:53.489Z,27.30
2019-06-26T01:24:59.730Z,27.30
2019-06-26T01:30:03.932Z,27.30
2019-06-26T01:35:07.642Z,27.30
2019-06-26T01:40:11.355Z,27.30
2019-06-26T01:45:14.985Z,27.30
2019-06-26T01:50:18.943Z,27.30
2019-06-26T01:55:22.606Z,27.30
2019-06-26T02:00:27.379Z,27.30
2019-06-26T02:05:31.175Z,27.30
2019-06-26T02:10:34.892Z,27.30
2019-06-26T02:15:38.606Z,27.30
2019-06-26T02:20:42.325Z,27.30
2019-06-26T02:25:46.068Z,27.30
2019-06-26T02:30:49.880Z,27.30
2019-06-26T02:35:53.560Z,27.30
2019-06-26T02:40:57.184Z,27.30
2019-06-26T02:46:00.848Z,27.30
2019-06-26T02:51:04.565Z,27.30
2019-06-26T02:56:08.328Z,27.30
2019-06-26T03:01:12.038Z,27.30
2019-06-26T03:06:15.726Z,27.30
2019-06-26T03:11:19.404Z,27.30
2019-06-26T03:16:23.079Z,27.30
2019-06-26T03:21:26.775Z,27.30
2019-06-26T03:26:30.485Z,27.30
2019-06-26T03:31:34.142Z,27.30
2019-06-26T03:36:37.798Z,27.30
2019-06-26T03:41:41.447Z,27.30
2019-06-26T03:46:45.123Z,27.30
2019-06-26T03:51:48.819Z,27.30
2019-06-26T03:56:52.538Z,27.30
2019-06-26T04:01:56.206Z,27.30
2019-06-26T04:07:00.317Z,27.30
2019-06-26T04:12:04.919Z,27.30
2019-06-26T04:17:08.672Z,27.40
2019-06-26T04:22:12.376Z,27.30
2019-06-26T04:27:16.162Z,27.40
2019-06-26T04:32:19.934Z,27.40
2019-06-26T04:37:23.621Z,27.30
2019-06-26T04:42:27.398Z,27.30
2019-06-26T04:47:31.213Z,27.30
2019-06-26T04:52:34.858Z,27.40
2019-06-26T04:57:38.634Z,27.40
2019-06-26T05:02:42.558Z,27.40
2019-06-26T05:07:48.519Z,27.40
2019-06-26T05:12:52.209Z,27.40
2019-06-26T05:17:55.903Z,27.40
2019-06-26T05:23:01.977Z,27.40
2019-06-26T05:28:08.282Z,27.40
2019-06-26T05:33:11.429Z,27.40
2019-06-26T05:38:15.083Z,27.40
2019-06-26T05:43:18.715Z,27.40
2019-06-26T05:48:23.158Z,27.40
2019-06-26T05:53:26.820Z,27.40
2019-06-26T05:58:30.582Z,27.40
2019-06-26T06:03:34.311Z,27.40
2019-06-26T06:08:38.074Z,27.40
2019-06-26T06:13:42.068Z,27.40
2019-06-26T06:18:46.173Z,27.40
2019-06-26T06:23:49.852Z,27.40
2019-06-26T06:28:53.860Z,27.40
2019-06-26T06:33:57.610Z,27.40
2019-06-26T06:39:01.506Z,27.40
2019-06-26T06:44:31.096Z,27.40
2019-06-26T06:49:37.915Z,27.40
2019-06-26T06:54:41.638Z,27.40
2019-06-26T06:59:45.405Z,27.40
2019-06-26T07:04:49.463Z,27.40
2019-06-26T07:09:53.191Z,27.40
2019-06-26T07:14:58.127Z,27.40
2019-06-26T07:20:01.978Z,27.40
2019-06-26T07:25:05.989Z,27.40
2019-06-26T07:30:09.915Z,27.40
2019-06-26T07:35:13.561Z,27.40
2019-06-26T07:40:17.841Z,27.40
2019-06-26T07:45:24.063Z,27.40
2019-06-26T07:50:27.013Z,27.40
2019-06-26T07:55:30.844Z,27.40
2019-06-26T08:00:34.735Z,27.40
2019-06-26T08:05:41.780Z,27.40
2019-06-26T08:10:44.140Z,27.40
2019-06-26T08:15:47.797Z,27.40
2019-06-26T08:21:07.508Z,27.40
2019-06-26T08:25:56.770Z,27.40
2019-06-26T08:31:00.617Z,27.40
2019-06-26T08:36:04.325Z,27.40
2019-06-26T08:41:08.058Z,27.40
2019-06-26T08:46:12.448Z,27.40
2019-06-26T08:51:16.323Z,27.40
2019-06-26T08:56:20.115Z,27.40
2019-06-26T09:01:23.898Z,27.40
2019-06-26T09:06:29.757Z,27.40
2019-06-26T09:11:33.434Z,27.40
2019-06-26T09:16:37.344Z,27.40
2019-06-26T09:21:41.098Z,27.40
2019-06-26T09:26:44.760Z,27.40
2019-06-26T09:31:48.641Z,27.40
2019-06-26T09:36:52.284Z,27.40
2019-06-26T09:41:56.025Z,27.40
2019-06-26T09:47:00.357Z,27.40
2019-06-26T09:52:04.354Z,27.40
2019-06-26T09:57:10.654Z,27.40
2019-06-26T10:02:14.376Z,27.40
2019-06-26T10:07:18.354Z,27.40
2019-06-26T10:12:22.427Z,27.40
2019-06-26T10:17:26.128Z,27.40
2019-06-26T10:22:29.880Z,27.50
2019-06-26T10:27:33.538Z,27.50
2019-06-26T10:32:37.358Z,27.50
2019-06-26T10:37:41.191Z,27.50
2019-06-26T10:42:44.950Z,27.50
2019-06-26T10:47:48.906Z,27.50
2019-06-26T10:52:52.661Z,27.50
2019-06-26T10:57:56.381Z,27.50
2019-06-26T11:03:00.141Z,27.50
2019-06-26T11:08:03.975Z,27.50
2019-06-26T11:13:08.139Z,27.50
2019-06-26T11:18:12.356Z,27.50
2019-06-26T11:23:16.066Z,27.50
2019-06-26T11:28:19.815Z,27.50
2019-06-26T11:33:23.845Z,27.50
2019-06-26T11:38:27.976Z,27.50
2019-06-26T11:43:32.204Z,27.50
2019-06-26T11:48:36.073Z,27.50
2019-06-26T11:53:40.193Z,27.50
2019-06-26T11:58:43.941Z,27.50
2019-06-26T12:03:48.703Z,27.50
2019-06-26T12:08:52.906Z,27.50
2019-06-26T12:13:57.812Z,27.50
2019-06-26T12:19:01.640Z,27.50
2019-06-26T12:24:05.946Z,27.50
2019-06-26T12:29:17.474Z,27.50
2019-06-26T12:34:21.205Z,27.50
2019-06-26T12:39:25.002Z,27.50
2019-06-26T12:44:28.825Z,27.50
2019-06-26T12:49:33.014Z,27.50
2019-06-26T12:54:36.848Z,27.50
2019-06-26T12:59:55.955Z,27.50
2019-06-26T13:04:46.016Z,27.60
2019-06-26T13:09:49.846Z,27.60
2019-06-26T13:14:54.954Z,27.50
2019-06-26T13:19:58.860Z,27.60
2019-06-26T13:25:02.885Z,27.60
2019-06-26T13:30:06.924Z,27.60
2019-06-26T13:35:11.045Z,27.60
2019-06-26T13:40:14.860Z,27.60
2019-06-26T13:45:19.134Z,27.60
2019-06-26T13:50:22.960Z,27.60
2019-06-26T13:55:28.657Z,27.60
2019-06-26T14:00:32.222Z,27.60
2019-06-26T14:05:35.945Z,27.60
2019-06-26T14:10:39.589Z,27.60
2019-06-26T14:15:43.394Z,27.60
2019-06-26T14:20:48.303Z,27.60
2019-06-26T14:25:52.343Z,27.60
2019-06-26T14:30:56.233Z,27.60
2019-06-26T14:36:00.116Z,27.60
2019-06-26T14:41:03.839Z,27.60
2019-06-26T14:46:07.593Z,27.70
2019-06-26T14:51:11.474Z,27.60
2019-06-26T14:56:15.249Z,27.60
2019-06-26T15:01:19.064Z,27.60
2019-06-26T15:06:23.060Z,27.60
2019-06-26T15:11:26.795Z,27.60
2019-06-26T15:16:30.645Z,27.60
2019-06-26T15:21:34.562Z,27.60
2019-06-26T15:26:38.516Z,27.60
2019-06-26T15:31:42.342Z,27.60
2019-06-26T15:36:46.192Z,27.70
2019-06-26T15:41:50.003Z,27.70
2019-06-26T15:46:54.600Z,27.70
2019-06-26T15:52:14.075Z,27.70
2019-06-26T15:57:05.284Z,27.70
2019-06-26T16:02:10.351Z,27.70
2019-06-26T16:07:14.178Z,27.70
2019-06-26T16:12:17.997Z,27.70
2019-06-26T16:17:32.716Z,27.70
2019-06-26T16:22:36.582Z,27.70
2019-06-26T16:27:41.148Z,27.70
2019-06-26T16:32:45.026Z,27.70
2019-06-26T16:37:48.737Z,27.70
2019-06-26T16:42:52.535Z,27.70
2019-06-26T16:47:56.277Z,27.70
2019-06-26T16:53:00.333Z,27.70
2019-06-26T16:58:05.189Z,27.70
2019-06-26T17:03:08.890Z,27.70
2019-06-26T17:08:15.367Z,27.70
2019-06-26T17:13:20.128Z,27.70
2019-06-26T17:18:23.941Z,27.70
2019-06-26T17:23:27.590Z,27.70
2019-06-26T17:28:31.452Z,27.80
2019-06-26T17:33:35.493Z,27.80
2019-06-26T17:38:40.445Z,27.80
2019-06-26T17:43:45.381Z,27.80
2019-06-26T17:48:49.628Z,27.80
2019-06-26T17:53:53.514Z,27.80
2019-06-26T17:58:57.270Z,27.80
2019-06-26T18:04:01.280Z,27.80
2019-06-26T18:09:07.951Z,27.80
2019-06-26T18:14:11.707Z,27.80
2019-06-26T18:19:15.458Z,27.80
2019-06-26T18:24:21.383Z,27.80
2019-06-26T18:29:25.260Z,27.80
2019-06-26T18:34:29.059Z,27.80
2019-06-26T18:39:32.765Z,27.80
2019-06-26T18:44:36.605Z,27.80
2019-06-26T18:49:40.431Z,27.80
2019-06-26T18:54:44.203Z,27.80
2019-06-26T18:59:47.970Z,27.80
2019-06-26T19:04:54.150Z,27.80
2019-06-26T19:09:57.216Z,27.80
2019-06-26T19:15:01.168Z,27.80
2019-06-26T19:20:05.643Z,27.80
2019-06-26T19:25:10.906Z,27.80
2019-06-26T19:30:14.707Z,27.90
2019-06-26T19:35:19.592Z,27.80
2019-06-26T19:40:24.460Z,27.80
2019-06-26T19:45:28.493Z,27.80
2019-06-26T19:50:32.355Z,27.80
2019-06-26T19:55:36.546Z,27.80
2019-06-26T20:00:40.336Z,27.80
2019-06-26T20:05:44.134Z,27.90
2019-06-26T20:10:48.016Z,27.90
2019-06-26T20:15:52.996Z,27.90
2019-06-26T20:20:56.943Z,27.90
2019-06-26T20:26:00.806Z,27.90
2019-06-26T20:31:04.671Z,27.90
2019-06-26T20:36:08.447Z,27.90
2019-06-26T20:41:12.543Z,27.90
2019-06-26T20:46:16.422Z,27.90
2019-06-26T20:51:21.046Z,27.90
2019-06-26T20:56:25.929Z,27.90
2019-06-26T21:01:29.779Z,27.90
2019-06-26T21:06:33.486Z,27.90
2019-06-26T21:11:37.320Z,27.90
2019-06-26T21:16:41.490Z,27.90
2019-06-26T21:21:45.260Z,27.90
2019-06-26T21:26:49.002Z,27.90
2019-06-26T21:31:52.832Z,27.90
2019-06-26T21:37:03.393Z,27.90
2019-06-26T21:42:07.055Z,27.90
2019-06-26T21:47:10.847Z,27.90
2019-06-26T21:52:14.503Z,27.90
2019-06-26T21:57:18.279Z,27.90
2019-06-26T22:02:22.069Z,27.90
2019-06-26T22:07:25.761Z,27.90
2019-06-26T22:12:29.638Z,27.90
2019-06-26T22:17:33.481Z,27.90
2019-06-26T22:22:39.284Z,27.90
2019-06-26T22:27:42.951Z,27.90
2019-06-26T22:32:46.817Z,27.90
2019-06-26T22:37:50.642Z,27.90
2019-06-26T22:42:54.422Z,27.90
2019-06-26T22:47:58.084Z,27.90
2019-06-26T22:53:01.831Z,27.90
2019-06-26T22:58:05.608Z,27.90
2019-06-26T23:03:09.432Z,27.90
2019-06-26T23:08:13.147Z,27.90
2019-06-26T23:13:16.864Z,27.90
2019-06-26T23:18:21.515Z,27.90
2019-06-26T23:23:25.272Z,27.90
2019-06-26T23:28:29.049Z,27.90
2019-06-26T23:33:32.819Z,27.90
2019-06-26T23:38:36.611Z,27.90
2019-06-26T23:43:40.412Z,27.90
2019-06-26T23:48:45.879Z,27.90
2019-06-26T23:53:49.678Z,27.90
2019-06-26T23:58:53.491Z,28.00
